createdAt,value
2022-12-18T00:00:42.535Z,-8.42
2022-12-18T00:01:34.804Z,-8.39
2022-12-18T00:02:23.053Z,-8.39
2022-12-18T00:03:09.677Z,-8.33
2022-12-18T00:03:57.175Z,-8.32
2022-12-18T00:04:43.946Z,-8.33
2022-12-18T00:05:30.416Z,-8.31
2022-12-18T00:06:17.756Z,-8.35
2022-12-18T00:07:04.426Z,-8.33
2022-12-18T00:07:51.087Z,-8.27
2022-12-18T00:08:37.501Z,-8.18
2022-12-18T00:09:24.799Z,-8.14
2022-12-18T00:10:11.444Z,-8.20
2022-12-18T00:11:11.943Z,-8.28
2022-12-18T00:11:59.457Z,-8.33
2022-12-18T00:12:46.047Z,-8.36
2022-12-18T00:13:32.780Z,-8.35
2022-12-18T00:14:19.326Z,-8.41
2022-12-18T00:15:06.398Z,-8.45
2022-12-18T00:15:53.135Z,-8.47
2022-12-18T00:16:47.486Z,-8.51
2022-12-18T00:17:34.121Z,-8.54
2022-12-18T00:18:20.894Z,-8.55
2022-12-18T00:19:08.387Z,-8.52
2022-12-18T00:19:54.856Z,-8.52
2022-12-18T00:20:41.371Z,-8.52
2022-12-18T00:21:32.839Z,-8.51
2022-12-18T00:22:19.451Z,-8.55
2022-12-18T00:23:07.521Z,-8.54
2022-12-18T00:23:54.153Z,-8.54
2022-12-18T00:24:40.865Z,-8.51
2022-12-18T00:25:27.525Z,-8.51
2022-12-18T00:26:17.976Z,-8.53
2022-12-18T00:27:04.612Z,-8.46
2022-12-18T00:27:51.377Z,-8.43
2022-12-18T00:28:38.277Z,-8.49
2022-12-18T00:29:24.811Z,-8.46
2022-12-18T00:30:12.046Z,-8.45
2022-12-18T00:31:07.277Z,-8.37
2022-12-18T00:31:53.941Z,-8.28
2022-12-18T00:32:40.658Z,-8.27
2022-12-18T00:33:27.359Z,-8.17
2022-12-18T00:34:14.530Z,-8.09
2022-12-18T00:35:01.057Z,-7.96
2022-12-18T00:35:47.819Z,-7.95
2022-12-18T00:36:36.216Z,-7.99
2022-12-18T00:37:22.966Z,-8.05
2022-12-18T00:38:11.212Z,-8.08
2022-12-18T00:38:59.675Z,-8.10
2022-12-18T00:39:46.138Z,-8.12
2022-12-18T00:40:32.816Z,-8.13
2022-12-18T00:41:42.080Z,-8.10
2022-12-18T00:42:47.283Z,-8.21
2022-12-18T00:43:33.978Z,-8.28
2022-12-18T00:44:20.849Z,-8.26
2022-12-18T00:45:12.326Z,-8.32
2022-12-18T00:45:59.811Z,-8.33
2022-12-18T00:46:49.055Z,-8.38
2022-12-18T00:47:35.587Z,-8.34
2022-12-18T00:48:23.177Z,-8.35
2022-12-18T00:49:10.348Z,-8.37
2022-12-18T00:49:57.077Z,-8.35
2022-12-18T00:50:43.587Z,-8.37
2022-12-18T00:51:30.653Z,-8.35
2022-12-18T00:52:17.156Z,-8.36
2022-12-18T00:53:03.735Z,-8.38
2022-12-18T00:53:50.430Z,-8.35
2022-12-18T00:54:37.045Z,-8.33
2022-12-18T00:55:23.652Z,-8.38
2022-12-18T00:56:10.577Z,-8.34
2022-12-18T00:56:57.372Z,-8.29
2022-12-18T00:57:44.245Z,-8.30
2022-12-18T00:58:32.151Z,-8.33
2022-12-18T00:59:24.832Z,-8.38
2022-12-18T01:00:15.030Z,-8.34
2022-12-18T01:01:02.195Z,-8.29
2022-12-18T01:01:48.994Z,-8.31
2022-12-18T01:02:35.901Z,-8.28
2022-12-18T01:03:22.848Z,-8.31
2022-12-18T01:04:09.849Z,-8.36
2022-12-18T01:04:57.569Z,-8.41
2022-12-18T01:05:44.375Z,-8.44
2022-12-18T01:06:32.015Z,-8.50
2022-12-18T01:07:18.544Z,-8.53
2022-12-18T01:08:05.511Z,-8.56
2022-12-18T01:08:52.035Z,-8.59
2022-12-18T01:09:38.827Z,-8.63
2022-12-18T01:10:26.669Z,-8.69
2022-12-18T01:11:18.751Z,-8.73
2022-12-18T01:12:05.705Z,-8.72
2022-12-18T01:12:52.776Z,-8.71
2022-12-18T01:13:41.061Z,-8.77
2022-12-18T01:14:27.906Z,-8.74
2022-12-18T01:15:15.857Z,-8.79
2022-12-18T01:16:03.354Z,-8.78
2022-12-18T01:16:50.155Z,-8.82
2022-12-18T01:17:36.704Z,-8.87
2022-12-18T01:18:23.240Z,-8.90
2022-12-18T01:19:11.092Z,-8.94
2022-12-18T01:19:57.797Z,-8.97
2022-12-18T01:20:44.373Z,-8.96
2022-12-18T01:21:30.855Z,-8.99
2022-12-18T01:22:17.408Z,-8.99
2022-12-18T01:23:07.309Z,-8.98
2022-12-18T01:23:56.673Z,-9.01
2022-12-18T01:24:43.705Z,-9.02
2022-12-18T01:25:30.368Z,-9.04
2022-12-18T01:26:17.235Z,-9.06
2022-12-18T01:27:04.338Z,-9.09
2022-12-18T01:27:50.850Z,-9.11
2022-12-18T01:28:38.957Z,-9.11
2022-12-18T01:29:27.637Z,-9.11
2022-12-18T01:30:14.667Z,-9.12
2022-12-18T01:31:19.595Z,-9.14
2022-12-18T01:32:07.325Z,-9.14
2022-12-18T01:32:54.274Z,-9.14
2022-12-18T01:33:41.570Z,-9.14
2022-12-18T01:34:28.346Z,-9.18
2022-12-18T01:35:14.935Z,-9.22
2022-12-18T01:36:01.571Z,-9.25
2022-12-18T01:36:48.040Z,-9.28
2022-12-18T01:37:34.490Z,-9.28
2022-12-18T01:38:20.998Z,-9.27
2022-12-18T01:39:11.921Z,-9.26
2022-12-18T01:40:01.664Z,-9.31
2022-12-18T01:40:48.384Z,-9.36
2022-12-18T01:41:55.568Z,-9.37
2022-12-18T01:42:42.058Z,-9.42
2022-12-18T01:43:53.449Z,-9.47
2022-12-18T01:44:52.702Z,-9.49
2022-12-18T01:45:39.585Z,-9.51
2022-12-18T01:46:28.139Z,-9.54
2022-12-18T01:47:21.692Z,-9.53
2022-12-18T01:48:09.985Z,-9.55
2022-12-18T01:49:02.748Z,-9.56
2022-12-18T01:49:49.491Z,-9.59
2022-12-18T01:50:42.692Z,-9.61
2022-12-18T01:51:31.949Z,-9.62
2022-12-18T01:52:21.389Z,-9.66
2022-12-18T01:53:11.074Z,-9.66
2022-12-18T01:53:59.947Z,-9.65
2022-12-18T01:54:49.633Z,-9.63
2022-12-18T01:55:52.783Z,-9.62
2022-12-18T01:56:39.273Z,-9.59
2022-12-18T01:57:27.307Z,-9.53
2022-12-18T01:58:14.506Z,-9.49
2022-12-18T01:59:10.409Z,-9.46
2022-12-18T02:00:03.923Z,-9.49
2022-12-18T02:01:07.098Z,-9.54
2022-12-18T02:01:54.001Z,-9.56
2022-12-18T02:02:43.821Z,-9.58
2022-12-18T02:03:30.483Z,-9.61
2022-12-18T02:04:25.626Z,-9.65
2022-12-18T02:05:17.734Z,-9.67
2022-12-18T02:06:11.889Z,-9.69
2022-12-18T02:07:21.165Z,-9.73
2022-12-18T02:08:22.230Z,-9.78
2022-12-18T02:09:18.038Z,-9.81
2022-12-18T02:10:25.263Z,-9.83
2022-12-18T02:11:23.372Z,-9.87
2022-12-18T02:12:31.738Z,-9.90
2022-12-18T02:13:51.772Z,-9.87
2022-12-18T02:14:56.282Z,-9.86
2022-12-18T02:15:51.905Z,-9.88
2022-12-18T02:16:55.449Z,-9.88
2022-12-18T02:17:55.286Z,-9.89
2022-12-18T02:18:49.643Z,-9.93
2022-12-18T02:19:48.413Z,-9.91
2022-12-18T02:20:41.340Z,-9.89
2022-12-18T02:21:36.792Z,-9.93
2022-12-18T02:22:54.056Z,-9.95
2022-12-18T02:24:05.684Z,-10.00
2022-12-18T02:25:06.917Z,-9.99
2022-12-18T02:26:08.008Z,-10.01
2022-12-18T02:27:00.870Z,-10.02
2022-12-18T02:27:53.066Z,-10.04
2022-12-18T02:29:16.763Z,-10.04
2022-12-18T02:30:06.675Z,-10.07
2022-12-18T02:31:00.691Z,-10.09
2022-12-18T02:31:58.393Z,-10.12
2022-12-18T02:32:52.082Z,-10.13
2022-12-18T02:33:42.903Z,-10.14
2022-12-18T02:34:35.860Z,-10.16
2022-12-18T02:35:28.457Z,-10.15
2022-12-18T02:36:21.637Z,-10.17
2022-12-18T02:37:14.905Z,-10.18
2022-12-18T02:38:05.174Z,-10.21
2022-12-18T02:38:57.885Z,-10.22
2022-12-18T02:39:48.839Z,-10.23
2022-12-18T02:40:37.971Z,-10.25
2022-12-18T02:41:25.889Z,-10.24
2022-12-18T02:42:13.587Z,-10.25
2022-12-18T02:43:18.723Z,-10.25
2022-12-18T02:44:13.420Z,-10.28
2022-12-18T02:45:00.493Z,-10.25
2022-12-18T02:45:58.784Z,-10.24
2022-12-18T02:46:52.403Z,-10.25
2022-12-18T02:47:44.941Z,-10.28
2022-12-18T02:48:36.011Z,-10.26
2022-12-18T02:49:31.328Z,-10.29
2022-12-18T02:50:34.855Z,-10.29
2022-12-18T02:51:37.495Z,-10.30
2022-12-18T02:52:37.289Z,-10.30
2022-12-18T02:53:38.391Z,-10.32
2022-12-18T02:54:39.188Z,-10.31
2022-12-18T02:55:35.308Z,-10.33
2022-12-18T02:56:38.455Z,-10.29
2022-12-18T02:57:40.024Z,-10.30
2022-12-18T02:58:50.296Z,-10.31
2022-12-18T03:00:15.603Z,-10.31
2022-12-18T03:01:28.415Z,-10.32
2022-12-18T03:02:45.276Z,-10.31
2022-12-18T03:03:50.034Z,-10.30
2022-12-18T03:04:53.232Z,-10.27
2022-12-18T03:05:53.508Z,-10.22
2022-12-18T03:06:48.187Z,-10.22
2022-12-18T03:07:51.588Z,-10.23
2022-12-18T03:08:45.388Z,-10.18
2022-12-18T03:09:44.489Z,-10.22
2022-12-18T03:10:36.499Z,-10.21
2022-12-18T03:11:43.625Z,-10.24
2022-12-18T03:12:39.546Z,-10.24
2022-12-18T03:13:34.373Z,-10.27
2022-12-18T03:14:24.355Z,-10.26
2022-12-18T03:16:00.753Z,-10.28
2022-12-18T03:16:54.350Z,-10.31
2022-12-18T03:17:49.845Z,-10.31
2022-12-18T03:18:54.816Z,-10.33
2022-12-18T03:19:48.780Z,-10.33
2022-12-18T03:20:38.068Z,-10.35
2022-12-18T03:21:34.800Z,-10.36
2022-12-18T03:22:25.756Z,-10.38
2022-12-18T03:23:22.337Z,-10.39
2022-12-18T03:24:12.720Z,-10.42
2022-12-18T03:25:05.565Z,-10.44
2022-12-18T03:26:00.805Z,-10.45
2022-12-18T03:26:55.836Z,-10.45
2022-12-18T03:27:49.987Z,-10.47
2022-12-18T03:28:44.915Z,-10.48
2022-12-18T03:29:36.840Z,-10.48
2022-12-18T03:30:29.850Z,-10.49
2022-12-18T03:31:18.986Z,-10.49
2022-12-18T03:32:16.634Z,-10.50
2022-12-18T03:33:25.036Z,-10.51
2022-12-18T03:34:24.525Z,-10.50
2022-12-18T03:35:17.838Z,-10.50
2022-12-18T03:36:05.340Z,-10.51
2022-12-18T03:36:53.018Z,-10.52
2022-12-18T03:37:40.607Z,-10.52
2022-12-18T03:38:28.052Z,-10.48
2022-12-18T03:39:14.870Z,-10.47
2022-12-18T03:40:07.417Z,-10.46
2022-12-18T03:41:13.623Z,-10.46
2022-12-18T03:42:41.325Z,-10.47
2022-12-18T03:43:38.692Z,-10.48
2022-12-18T03:44:40.811Z,-10.50
2022-12-18T03:45:36.709Z,-10.51
2022-12-18T03:46:39.875Z,-10.51
2022-12-18T03:47:40.563Z,-10.52
2022-12-18T03:48:45.219Z,-10.51
2022-12-18T03:50:12.475Z,-10.53
2022-12-18T03:51:15.769Z,-10.53
2022-12-18T03:52:19.224Z,-10.53
2022-12-18T03:53:27.054Z,-10.56
2022-12-18T03:54:15.736Z,-10.56
2022-12-18T03:55:12.836Z,-10.56
2022-12-18T03:56:04.944Z,-10.58
2022-12-18T03:57:04.775Z,-10.59
2022-12-18T03:57:54.210Z,-10.58
2022-12-18T03:58:44.291Z,-10.57
2022-12-18T03:59:40.163Z,-10.58
2022-12-18T04:00:31.561Z,-10.59
2022-12-18T04:01:33.841Z,-10.58
2022-12-18T04:02:24.593Z,-10.54
2022-12-18T04:03:14.612Z,-10.55
2022-12-18T04:04:10.803Z,-10.57
2022-12-18T04:05:03.537Z,-10.58
2022-12-18T04:05:55.012Z,-10.57
2022-12-18T04:06:44.669Z,-10.59
2022-12-18T04:07:34.008Z,-10.59
2022-12-18T04:08:22.845Z,-10.61
2022-12-18T04:09:20.463Z,-10.63
2022-12-18T04:10:10.135Z,-10.61
2022-12-18T04:10:58.708Z,-10.62
2022-12-18T04:11:47.622Z,-10.62
2022-12-18T04:12:35.753Z,-10.60
2022-12-18T04:13:24.349Z,-10.62
2022-12-18T04:14:17.587Z,-10.64
2022-12-18T04:15:06.721Z,-10.62
2022-12-18T04:15:53.779Z,-10.62
2022-12-18T04:16:43.182Z,-10.60
2022-12-18T04:17:33.126Z,-10.57
2022-12-18T04:18:19.657Z,-10.56
2022-12-18T04:19:07.000Z,-10.56
2022-12-18T04:19:59.014Z,-10.54
2022-12-18T04:20:45.687Z,-10.50
2022-12-18T04:21:32.175Z,-10.50
2022-12-18T04:22:18.771Z,-10.46
2022-12-18T04:23:08.618Z,-10.51
2022-12-18T04:23:55.407Z,-10.51
2022-12-18T04:24:43.110Z,-10.53
2022-12-18T04:25:36.962Z,-10.52
2022-12-18T04:26:30.844Z,-10.49
2022-12-18T04:27:31.862Z,-10.47
2022-12-18T04:28:19.681Z,-10.46
2022-12-18T04:29:06.584Z,-10.48
2022-12-18T04:29:53.434Z,-10.47
2022-12-18T04:30:39.958Z,-10.45
2022-12-18T04:31:27.425Z,-10.44
2022-12-18T04:32:14.082Z,-10.46
2022-12-18T04:33:03.226Z,-10.44
2022-12-18T04:33:51.149Z,-10.48
2022-12-18T04:34:37.805Z,-10.53
2022-12-18T04:35:25.397Z,-10.46
2022-12-18T04:36:13.343Z,-10.48
2022-12-18T04:37:00.591Z,-10.51
2022-12-18T04:37:47.420Z,-10.43
2022-12-18T04:38:34.040Z,-10.42
2022-12-18T04:39:26.617Z,-10.38
2022-12-18T04:40:17.260Z,-10.39
2022-12-18T04:41:06.691Z,-10.42
2022-12-18T04:41:53.902Z,-10.42
2022-12-18T04:42:41.294Z,-10.45
2022-12-18T04:43:28.106Z,-10.46
2022-12-18T04:44:14.752Z,-10.44
2022-12-18T04:45:01.574Z,-10.43
2022-12-18T04:45:48.007Z,-10.41
2022-12-18T04:46:34.616Z,-10.39
2022-12-18T04:47:21.289Z,-10.42
2022-12-18T04:48:07.821Z,-10.42
2022-12-18T04:48:54.470Z,-10.38
2022-12-18T04:49:40.955Z,-10.38
2022-12-18T04:50:28.659Z,-10.39
2022-12-18T04:51:15.355Z,-10.39
2022-12-18T04:52:01.955Z,-10.36
2022-12-18T04:52:48.563Z,-10.35
2022-12-18T04:53:35.181Z,-10.31
2022-12-18T04:54:21.628Z,-10.29
2022-12-18T04:55:08.711Z,-10.23
2022-12-18T04:56:13.039Z,-10.23
2022-12-18T04:56:59.533Z,-10.24
2022-12-18T04:57:46.760Z,-10.23
2022-12-18T04:58:33.282Z,-10.25
2022-12-18T04:59:19.741Z,-10.28
2022-12-18T05:00:06.956Z,-10.30
2022-12-18T05:00:54.567Z,-10.33
2022-12-18T05:01:41.329Z,-10.37
2022-12-18T05:02:28.167Z,-10.38
2022-12-18T05:03:14.653Z,-10.37
2022-12-18T05:04:02.120Z,-10.36
2022-12-18T05:04:48.750Z,-10.38
2022-12-18T05:05:36.064Z,-10.41
2022-12-18T05:06:22.501Z,-10.43
2022-12-18T05:07:09.191Z,-10.44
2022-12-18T05:07:55.892Z,-10.45
2022-12-18T05:08:42.389Z,-10.44
2022-12-18T05:09:28.878Z,-10.45
2022-12-18T05:10:15.377Z,-10.44
2022-12-18T05:11:04.735Z,-10.46
2022-12-18T05:11:52.044Z,-10.45
2022-12-18T05:12:58.580Z,-10.43
2022-12-18T05:13:46.634Z,-10.46
2022-12-18T05:14:33.268Z,-10.50
2022-12-18T05:15:19.903Z,-10.50
2022-12-18T05:16:07.329Z,-10.47
2022-12-18T05:16:57.964Z,-10.42
2022-12-18T05:17:47.510Z,-10.41
2022-12-18T05:18:35.160Z,-10.43
2022-12-18T05:19:21.710Z,-10.41
2022-12-18T05:20:08.782Z,-10.44
2022-12-18T05:20:55.839Z,-10.47
2022-12-18T05:21:42.270Z,-10.47
2022-12-18T05:22:29.191Z,-10.50
2022-12-18T05:23:15.592Z,-10.47
2022-12-18T05:24:02.042Z,-10.44
2022-12-18T05:24:48.486Z,-10.46
2022-12-18T05:25:34.939Z,-10.48
2022-12-18T05:26:21.577Z,-10.48
2022-12-18T05:27:08.085Z,-10.52
2022-12-18T05:27:55.149Z,-10.48
2022-12-18T05:28:41.644Z,-10.50
2022-12-18T05:29:28.378Z,-10.51
2022-12-18T05:30:16.455Z,-10.52
2022-12-18T05:31:05.434Z,-10.44
2022-12-18T05:31:52.209Z,-10.46
2022-12-18T05:32:39.219Z,-10.50
2022-12-18T05:33:27.784Z,-10.53
2022-12-18T05:34:14.216Z,-10.56
2022-12-18T05:35:01.124Z,-10.57
2022-12-18T05:35:55.859Z,-10.56
2022-12-18T05:36:42.680Z,-10.56
2022-12-18T05:37:29.445Z,-10.59
2022-12-18T05:38:16.093Z,-10.60
2022-12-18T05:39:02.829Z,-10.61
2022-12-18T05:39:49.291Z,-10.62
2022-12-18T05:40:35.989Z,-10.63
2022-12-18T05:41:22.763Z,-10.65
2022-12-18T05:42:09.267Z,-10.62
2022-12-18T05:42:55.688Z,-10.68
2022-12-18T05:43:42.928Z,-10.62
2022-12-18T05:44:29.589Z,-10.64
2022-12-18T05:45:16.234Z,-10.67
2022-12-18T05:46:08.284Z,-10.69
2022-12-18T05:46:55.063Z,-10.68
2022-12-18T05:47:41.756Z,-10.68
2022-12-18T05:48:28.347Z,-10.71
2022-12-18T05:49:14.831Z,-10.72
2022-12-18T05:50:01.575Z,-10.74
2022-12-18T05:50:49.978Z,-10.76
2022-12-18T05:51:36.663Z,-10.77
2022-12-18T05:52:23.663Z,-10.77
2022-12-18T05:53:10.433Z,-10.73
2022-12-18T05:53:56.916Z,-10.74
2022-12-18T05:54:43.480Z,-10.73
2022-12-18T05:55:30.266Z,-10.71
2022-12-18T05:56:20.731Z,-10.69
2022-12-18T05:57:07.352Z,-10.70
2022-12-18T05:57:53.955Z,-10.71
2022-12-18T05:58:40.636Z,-10.73
2022-12-18T05:59:27.454Z,-10.74
2022-12-18T06:00:14.516Z,-10.75
2022-12-18T06:01:19.409Z,-10.75
2022-12-18T06:02:06.144Z,-10.76
2022-12-18T06:02:52.915Z,-10.76
2022-12-18T06:03:40.125Z,-10.76
2022-12-18T06:04:29.490Z,-10.75
2022-12-18T06:05:16.463Z,-10.75
2022-12-18T06:06:03.225Z,-10.77
2022-12-18T06:06:49.834Z,-10.76
2022-12-18T06:07:36.260Z,-10.77
2022-12-18T06:08:22.747Z,-10.75
2022-12-18T06:09:10.463Z,-10.76
2022-12-18T06:09:56.972Z,-10.75
2022-12-18T06:10:43.420Z,-10.75
2022-12-18T06:11:30.036Z,-10.77
2022-12-18T06:12:16.588Z,-10.74
2022-12-18T06:13:04.223Z,-10.76
2022-12-18T06:13:57.878Z,-10.74
2022-12-18T06:14:44.765Z,-10.74
2022-12-18T06:15:31.422Z,-10.73
2022-12-18T06:16:18.209Z,-10.74
2022-12-18T06:17:04.786Z,-10.66
2022-12-18T06:17:51.389Z,-10.61
2022-12-18T06:18:37.875Z,-10.61
2022-12-18T06:19:24.660Z,-10.61
2022-12-18T06:20:11.113Z,-10.61
2022-12-18T06:20:58.493Z,-10.56
2022-12-18T06:21:45.168Z,-10.57
2022-12-18T06:22:33.074Z,-10.54
2022-12-18T06:23:19.736Z,-10.53
2022-12-18T06:24:06.855Z,-10.55
2022-12-18T06:24:53.491Z,-10.51
2022-12-18T06:25:40.387Z,-10.51
2022-12-18T06:26:28.566Z,-10.54
2022-12-18T06:27:15.828Z,-10.54
2022-12-18T06:28:02.443Z,-10.55
2022-12-18T06:28:49.083Z,-10.58
2022-12-18T06:29:35.672Z,-10.55
2022-12-18T06:30:22.171Z,-10.56
2022-12-18T06:31:10.262Z,-10.53
2022-12-18T06:31:56.923Z,-10.44
2022-12-18T06:32:43.624Z,-10.42
2022-12-18T06:33:31.144Z,-10.33
2022-12-18T06:34:17.734Z,-10.32
2022-12-18T06:35:04.861Z,-10.28
2022-12-18T06:35:52.776Z,-10.29
2022-12-18T06:36:40.804Z,-10.33
2022-12-18T06:37:27.307Z,-10.36
2022-12-18T06:38:13.910Z,-10.42
2022-12-18T06:39:00.615Z,-10.43
2022-12-18T06:39:47.105Z,-10.47
2022-12-18T06:40:34.023Z,-10.45
2022-12-18T06:41:22.844Z,-10.45
2022-12-18T06:42:09.359Z,-10.44
2022-12-18T06:42:56.035Z,-10.41
2022-12-18T06:43:43.148Z,-10.39
2022-12-18T06:44:29.859Z,-10.41
2022-12-18T06:45:16.803Z,-10.42
2022-12-18T06:46:05.318Z,-10.42
2022-12-18T06:46:51.924Z,-10.50
2022-12-18T06:47:38.520Z,-10.53
2022-12-18T06:48:24.985Z,-10.55
2022-12-18T06:49:11.567Z,-10.59
2022-12-18T06:49:58.181Z,-10.59
2022-12-18T06:50:44.632Z,-10.61
2022-12-18T06:51:31.092Z,-10.61
2022-12-18T06:52:17.612Z,-10.61
2022-12-18T06:53:04.071Z,-10.63
2022-12-18T06:53:50.845Z,-10.67
2022-12-18T06:54:37.505Z,-10.70
2022-12-18T06:55:24.111Z,-10.73
2022-12-18T06:56:11.215Z,-10.74
2022-12-18T06:56:58.414Z,-10.76
2022-12-18T06:57:44.883Z,-10.78
2022-12-18T06:58:33.306Z,-10.77
2022-12-18T06:59:19.920Z,-10.78
2022-12-18T07:00:08.010Z,-10.74
2022-12-18T07:01:02.432Z,-10.76
2022-12-18T07:01:49.122Z,-10.77
2022-12-18T07:02:35.826Z,-10.79
2022-12-18T07:03:22.357Z,-10.76
2022-12-18T07:04:08.784Z,-10.74
2022-12-18T07:04:55.492Z,-10.74
2022-12-18T07:05:42.162Z,-10.75
2022-12-18T07:06:28.576Z,-10.77
2022-12-18T07:07:15.221Z,-10.77
2022-12-18T07:08:02.248Z,-10.75
2022-12-18T07:08:49.910Z,-10.76
2022-12-18T07:09:36.507Z,-10.74
2022-12-18T07:10:23.025Z,-10.76
2022-12-18T07:11:10.082Z,-10.77
2022-12-18T07:11:56.678Z,-10.76
2022-12-18T07:12:44.541Z,-10.77
2022-12-18T07:13:31.121Z,-10.76
2022-12-18T07:14:17.653Z,-10.73
2022-12-18T07:15:05.007Z,-10.65
2022-12-18T07:15:51.800Z,-10.65
2022-12-18T07:16:38.402Z,-10.66
2022-12-18T07:17:25.158Z,-10.68
2022-12-18T07:18:11.894Z,-10.68
2022-12-18T07:18:58.339Z,-10.69
2022-12-18T07:19:45.207Z,-10.73
2022-12-18T07:20:31.774Z,-10.74
2022-12-18T07:21:20.332Z,-10.74
2022-12-18T07:22:06.855Z,-10.77
2022-12-18T07:22:56.372Z,-10.76
2022-12-18T07:23:43.331Z,-10.76
2022-12-18T07:24:29.913Z,-10.77
2022-12-18T07:25:16.639Z,-10.71
2022-12-18T07:26:09.748Z,-10.65
2022-12-18T07:26:56.310Z,-10.62
2022-12-18T07:27:42.952Z,-10.61
2022-12-18T07:28:29.462Z,-10.59
2022-12-18T07:29:16.099Z,-10.60
2022-12-18T07:30:02.626Z,-10.57
2022-12-18T07:30:49.449Z,-10.57
2022-12-18T07:31:36.140Z,-10.50
2022-12-18T07:32:22.696Z,-10.48
2022-12-18T07:33:11.584Z,-10.47
2022-12-18T07:33:58.201Z,-10.47
2022-12-18T07:34:46.459Z,-10.47
2022-12-18T07:35:34.899Z,-10.46
2022-12-18T07:36:21.341Z,-10.44
2022-12-18T07:37:09.074Z,-10.44
2022-12-18T07:37:57.310Z,-10.44
2022-12-18T07:38:44.095Z,-10.45
2022-12-18T07:39:30.611Z,-10.44
2022-12-18T07:40:17.181Z,-10.38
2022-12-18T07:41:07.245Z,-10.41
2022-12-18T07:42:12.416Z,-10.41
2022-12-18T07:43:00.203Z,-10.39
2022-12-18T07:43:47.509Z,-10.41
2022-12-18T07:44:35.766Z,-10.45
2022-12-18T07:45:22.406Z,-10.45
2022-12-18T07:46:12.326Z,-10.42
2022-12-18T07:47:00.093Z,-10.40
2022-12-18T07:47:46.498Z,-10.45
2022-12-18T07:48:34.443Z,-10.48
2022-12-18T07:49:21.077Z,-10.52
2022-12-18T07:50:08.285Z,-10.52
2022-12-18T07:50:54.801Z,-10.51
2022-12-18T07:51:41.300Z,-10.49
2022-12-18T07:52:27.866Z,-10.44
2022-12-18T07:53:15.333Z,-10.40
2022-12-18T07:54:01.790Z,-10.40
2022-12-18T07:54:50.819Z,-10.36
2022-12-18T07:55:54.937Z,-10.37
2022-12-18T07:56:44.030Z,-10.33
2022-12-18T07:58:38.784Z,-10.21
2022-12-18T07:59:25.378Z,-10.24
2022-12-18T08:00:13.187Z,-10.24
2022-12-18T08:01:19.898Z,-10.22
2022-12-18T08:02:08.429Z,-10.17
2022-12-18T08:02:55.504Z,-10.18
2022-12-18T08:03:42.898Z,-10.14
2022-12-18T08:04:29.894Z,-10.13
2022-12-18T08:05:16.607Z,-10.12
2022-12-18T08:06:05.820Z,-10.12
2022-12-18T08:06:52.859Z,-10.09
2022-12-18T08:07:59.422Z,-10.11
2022-12-18T08:08:46.175Z,-10.03
2022-12-18T08:09:32.598Z,-10.02
2022-12-18T08:10:20.636Z,-9.98
2022-12-18T08:11:07.232Z,-9.92
2022-12-18T08:11:53.735Z,-9.85
2022-12-18T08:12:42.968Z,-9.82
2022-12-18T08:13:29.731Z,-9.76
2022-12-18T08:14:16.184Z,-9.79
2022-12-18T08:15:03.113Z,-9.80
2022-12-18T08:16:04.792Z,-9.83
2022-12-18T08:16:51.390Z,-9.89
2022-12-18T08:17:38.119Z,-9.92
2022-12-18T08:18:24.708Z,-9.91
2022-12-18T08:19:11.198Z,-9.92
2022-12-18T08:19:57.656Z,-9.93
2022-12-18T08:20:45.484Z,-9.92
2022-12-18T08:21:32.546Z,-9.91
2022-12-18T08:22:19.333Z,-9.91
2022-12-18T08:23:05.877Z,-9.87
2022-12-18T08:23:54.362Z,-9.85
2022-12-18T08:24:40.955Z,-9.85
2022-12-18T08:25:27.618Z,-9.84
2022-12-18T08:26:15.281Z,-9.80
2022-12-18T08:28:10.609Z,-9.72
2022-12-18T08:28:58.773Z,-9.69
2022-12-18T08:29:45.613Z,-9.65
2022-12-18T08:30:32.331Z,-9.68
2022-12-18T08:31:20.081Z,-9.67
2022-12-18T08:32:08.073Z,-9.63
2022-12-18T08:32:54.963Z,-9.61
2022-12-18T08:33:42.430Z,-9.54
2022-12-18T08:34:29.884Z,-9.50
2022-12-18T08:35:18.878Z,-9.45
2022-12-18T08:36:07.051Z,-9.42
2022-12-18T08:36:58.345Z,-9.43
2022-12-18T08:37:44.812Z,-9.38
2022-12-18T08:38:32.845Z,-9.37
2022-12-18T08:39:19.444Z,-9.38
2022-12-18T08:40:06.747Z,-9.38
2022-12-18T08:41:05.897Z,-9.36
2022-12-18T08:42:11.013Z,-9.34
2022-12-18T08:43:15.959Z,-9.28
2022-12-18T08:44:21.102Z,-9.23
2022-12-18T08:45:08.263Z,-9.15
2022-12-18T08:45:54.965Z,-9.09
2022-12-18T08:46:44.430Z,-9.02
2022-12-18T08:47:31.030Z,-8.98
2022-12-18T08:48:22.047Z,-8.93
2022-12-18T08:49:11.118Z,-8.85
2022-12-18T08:49:57.708Z,-8.82
2022-12-18T08:50:44.308Z,-8.75
2022-12-18T08:51:31.072Z,-8.69
2022-12-18T08:52:17.707Z,-8.63
2022-12-18T08:53:04.225Z,-8.58
2022-12-18T08:53:50.702Z,-8.54
2022-12-18T08:54:37.159Z,-8.54
2022-12-18T08:55:24.002Z,-8.50
2022-12-18T08:56:10.670Z,-8.46
2022-12-18T08:56:57.261Z,-8.33
2022-12-18T08:57:43.885Z,-8.28
2022-12-18T08:58:31.174Z,-8.22
2022-12-18T08:59:20.051Z,-8.17
2022-12-18T09:00:07.422Z,-8.09
2022-12-18T09:00:54.228Z,-7.95
2022-12-18T09:01:40.791Z,-7.89
2022-12-18T09:02:27.840Z,-7.79
2022-12-18T09:03:16.045Z,-7.74
2022-12-18T09:04:02.989Z,-7.68
2022-12-18T09:04:55.425Z,-7.62
2022-12-18T09:05:48.438Z,-7.58
2022-12-18T09:06:35.230Z,-7.53
2022-12-18T09:07:22.693Z,-7.50
2022-12-18T09:08:09.885Z,-7.45
2022-12-18T09:08:57.910Z,-7.43
2022-12-18T09:09:44.454Z,-7.42
2022-12-18T09:10:31.121Z,-7.34
2022-12-18T09:11:24.503Z,-7.26
2022-12-18T09:12:11.175Z,-7.12
2022-12-18T09:12:57.676Z,-7.06
2022-12-18T09:13:44.342Z,-7.09
2022-12-18T09:14:31.128Z,-7.09
2022-12-18T09:15:17.768Z,-7.05
2022-12-18T09:16:04.744Z,-6.98
2022-12-18T09:16:51.765Z,-6.96
2022-12-18T09:17:38.312Z,-6.94
2022-12-18T09:18:26.010Z,-6.92
2022-12-18T09:19:12.731Z,-6.93
2022-12-18T09:19:59.218Z,-6.91
2022-12-18T09:20:46.403Z,-6.81
2022-12-18T09:21:43.379Z,-6.82
2022-12-18T09:22:32.899Z,-6.69
2022-12-18T09:23:19.858Z,-6.66
2022-12-18T09:24:08.813Z,-6.65
2022-12-18T09:24:55.879Z,-6.60
2022-12-18T09:25:42.671Z,-6.58
2022-12-18T09:26:30.196Z,-6.54
2022-12-18T09:27:16.671Z,-6.54
2022-12-18T09:28:07.085Z,-6.49
2022-12-18T09:28:54.658Z,-6.44
2022-12-18T09:29:41.412Z,-6.45
2022-12-18T09:30:27.842Z,-6.43
2022-12-18T09:31:15.021Z,-6.39
2022-12-18T09:32:01.523Z,-6.39
2022-12-18T09:32:48.070Z,-6.31
2022-12-18T09:33:36.806Z,-6.27
2022-12-18T09:34:23.269Z,-6.25
2022-12-18T09:35:09.689Z,-6.15
2022-12-18T09:35:56.231Z,-6.08
2022-12-18T09:36:43.084Z,-6.08
2022-12-18T09:37:30.372Z,-6.03
2022-12-18T09:38:21.078Z,-5.99
2022-12-18T09:39:08.865Z,-5.85
2022-12-18T09:39:55.764Z,-5.75
2022-12-18T09:40:54.737Z,-5.70
2022-12-18T09:41:46.913Z,-5.64
2022-12-18T09:42:33.600Z,-5.60
2022-12-18T09:43:42.168Z,-5.55
2022-12-18T09:44:45.477Z,-5.50
2022-12-18T09:45:43.560Z,-5.48
2022-12-18T09:46:44.222Z,-5.39
2022-12-18T09:47:38.107Z,-5.35
2022-12-18T09:48:38.124Z,-5.35
2022-12-18T09:49:30.189Z,-5.31
2022-12-18T09:50:37.956Z,-5.20
2022-12-18T09:51:31.587Z,-5.15
2022-12-18T09:52:40.730Z,-5.11
2022-12-18T09:53:35.616Z,-4.97
2022-12-18T09:54:39.141Z,-4.83
2022-12-18T09:55:37.587Z,-4.79
2022-12-18T09:56:29.468Z,-4.70
2022-12-18T09:57:23.710Z,-4.64
2022-12-18T09:58:45.405Z,-4.62
2022-12-18T09:59:37.994Z,-4.63
2022-12-18T10:00:26.518Z,-4.62
2022-12-18T10:01:19.415Z,-4.53
2022-12-18T10:02:18.398Z,-4.47
2022-12-18T10:03:12.689Z,-4.39
2022-12-18T10:04:00.758Z,-4.37
2022-12-18T10:05:06.524Z,-4.37
2022-12-18T10:06:13.694Z,-4.31
2022-12-18T10:07:35.042Z,-4.34
2022-12-18T10:08:50.514Z,-4.30
2022-12-18T10:09:46.407Z,-4.26
2022-12-18T10:10:42.591Z,-4.25
2022-12-18T10:11:56.396Z,-4.15
2022-12-18T10:13:00.958Z,-4.15
2022-12-18T10:14:07.285Z,-4.14
2022-12-18T10:15:11.908Z,-4.09
2022-12-18T10:16:10.652Z,-4.04
2022-12-18T10:17:15.759Z,-3.95
2022-12-18T10:18:25.971Z,-3.94
2022-12-18T10:19:36.743Z,-3.85
2022-12-18T10:20:50.125Z,-3.79
2022-12-18T10:21:42.576Z,-3.76
2022-12-18T10:22:48.751Z,-3.74
2022-12-18T10:23:52.022Z,-3.68
2022-12-18T10:24:54.863Z,-3.69
2022-12-18T10:26:13.609Z,-3.68
2022-12-18T10:27:16.569Z,-3.61
2022-12-18T10:28:15.183Z,-3.59
2022-12-18T10:29:05.655Z,-3.55
2022-12-18T10:29:52.999Z,-3.50
2022-12-18T10:30:42.048Z,-3.45
2022-12-18T10:31:29.067Z,-3.42
2022-12-18T10:32:30.372Z,-3.41
2022-12-18T10:33:19.505Z,-3.38
2022-12-18T10:34:11.048Z,-3.42
2022-12-18T10:35:00.859Z,-3.40
2022-12-18T10:35:51.031Z,-3.41
2022-12-18T10:36:38.901Z,-3.39
2022-12-18T10:37:28.572Z,-3.31
2022-12-18T10:38:18.035Z,-3.29
2022-12-18T10:39:19.910Z,-3.30
2022-12-18T10:40:10.100Z,-3.20
2022-12-18T10:41:18.186Z,-3.09
2022-12-18T10:42:19.559Z,-3.07
2022-12-18T10:43:13.439Z,-3.04
2022-12-18T10:44:18.691Z,-2.99
2022-12-18T10:45:12.553Z,-2.94
2022-12-18T10:46:06.446Z,-2.96